Time;durP1;ratioP1;P1;durP2;ratioP2;P2;SDS_P1;SDS_P2;PMS_P1;PMS_P2;Temp;Humidity;BMP_temperature;BMP_pressure;BME280_temperature;BME280_humidity;BME280_pressure;Samples;Min_cycle;Max_cycle;Signal;HPM_P1;HPM_P2
2024/02/17 00:01:56;;;;;;;0.00;0.00;;;;;;;5.87;100.00;101342.56;6247455;22;20047;-79
2024/02/17 00:04:21;;;;;;;0.00;0.00;;;;;;;5.70;100.00;101319.63;6222076;22;20027;-78
2024/02/17 00:06:59;;;;;;;;;;;;;;;;;;;;;
2024/02/17 00:10:04;;;;;;;0.00;0.00;;;;;;;5.79;100.00;101339.22;6288347;22;20023;-79
2024/02/17 00:21:33;;;;;;;0.10;0.10;;;;;;;5.59;100.00;101313.81;6043902;23;20083;-80
2024/02/17 00:24:19;;;;;;;0.00;0.00;;;;;;;5.74;100.00;101339.88;6048101;23;20066;-80
2024/02/17 00:26:59;;;;;;;0.00;0.00;;;;;;;5.70;100.00;101336.72;6050289;23;20016;-79
2024/02/17 00:29:24;;;;;;;0.00;0.00;;;;;;;5.60;100.00;101336.31;6049663;23;20069;-79
2024/02/17 00:31:58;;;;;;;0.00;0.00;;;;;;;5.67;100.00;101342.59;6169319;23;20017;-79
2024/02/17 00:34:24;;;;;;;0.00;0.00;;;;;;;5.88;100.00;101360.50;6191650;23;20016;-79
2024/02/17 00:36:53;;;;;;;0.00;0.00;;;;;;;6.30;100.00;101390.09;6163899;23;20005;-79
2024/02/17 00:39:18;;;;;;;0.00;0.00;;;;;;;6.34;100.00;101369.59;6187336;23;20009;-78
2024/02/17 00:41:45;;;;;;;0.00;0.00;;;;;;;6.58;100.00;101381.63;6201602;23;20852;-78
2024/02/17 00:44:11;;;;;;;0.00;0.00;;;;;;;6.71;100.00;101394.31;6231271;22;20012;-80
2024/02/17 00:46:36;;;;;;;0.00;0.00;;;;;;;6.72;100.00;101378.84;6233472;22;20023;-80
2024/02/17 00:49:02;;;;;;;0.00;0.00;;;;;;;6.86;100.00;101393.19;6252892;22;20091;-81
2024/02/17 00:51:32;;;;;;;0.00;0.00;;;;;;;6.75;100.00;101381.97;6255165;22;20008;-80
2024/02/17 00:53:57;;;;;;;0.00;0.00;;;;;;;6.70;100.00;101373.63;6250236;22;19999;-79
2024/02/17 00:56:23;;;;;;;0.00;0.00;;;;;;;6.72;100.00;101371.53;6282474;22;20430;-79
2024/02/17 00:58:50;;;;;;;0.00;0.00;;;;;;;6.71;100.00;101374.47;6201066;22;20014;-79
2024/02/17 01:01:15;;;;;;;0.00;0.00;;;;;;;6.78;100.00;101386.97;6230901;22;20011;-78
2024/02/17 01:03:41;;;;;;;0.00;0.00;;;;;;;6.80;100.00;101390.31;6254938;22;20018;-78
2024/02/17 01:06:09;;;;;;;0.00;0.00;;;;;;;6.64;100.00;101363.59;6252972;22;20007;-80
2024/02/17 01:08:35;;;;;;;0.10;0.10;;;;;;;6.60;100.00;101348.78;6253696;22;20003;-78
2024/02/17 01:11:05;;;;;;;0.00;0.00;;;;;;;6.70;100.00;101354.59;6278106;22;20010;-79
2024/02/17 01:13:31;;;;;;;0.00;0.00;;;;;;;6.73;100.00;101362.31;6230891;22;20030;-78
2024/02/17 01:15:58;;;;;;;0.00;0.00;;;;;;;6.95;100.00;101397.31;6253008;22;20443;-79
2024/02/17 01:18:24;;;;;;;0.00;0.00;;;;;;;6.79;100.00;101355.16;6205204;22;20039;-77
2024/02/17 01:20:49;;;;;;;0.00;0.00;;;;;;;6.98;100.00;101381.41;6252318;22;20073;-76
2024/02/17 01:23:15;;;;;;;0.00;0.00;;;;;;;6.85;100.00;101353.47;6227952;22;20066;-76
2024/02/17 01:25:40;;;;;;;0.00;0.00;;;;;;;6.98;100.00;101386.03;6229064;22;20033;-79
2024/02/17 01:28:10;;;;;;;0.00;0.00;;;;;;;6.75;100.00;101341.19;6254170;22;20046;-78
2024/02/17 01:30:39;;;;;;;0.00;0.00;;;;;;;7.02;100.00;101384.50;6230863;22;20003;-79
2024/02/17 01:33:12;;;;;;;0.00;0.00;;;;;;;6.85;100.00;101354.31;6255082;22;20065;-78
2024/02/17 01:35:38;;;;;;;0.10;0.10;;;;;;;6.88;100.00;101353.00;6231843;22;20087;-79
2024/02/17 01:38:07;;;;;;;0.00;0.00;;;;;;;6.95;100.00;101367.41;6255142;22;19995;-79
2024/02/17 01:40:33;;;;;;;0.00;0.00;;;;;;;7.08;100.00;101383.66;6252246;22;20031;-78
2024/02/17 01:42:59;;;;;;;0.00;0.00;;;;;;;7.03;100.00;101366.34;6254353;22;20038;-79
2024/02/17 01:45:25;;;;;;;0.00;0.00;;;;;;;7.09;100.00;101369.00;6250736;22;20780;-79
2024/02/17 01:47:52;;;;;;;0.00;0.00;;;;;;;7.14;100.00;101371.91;6229280;22;20007;-79
2024/02/17 01:50:18;;;;;;;0.00;0.00;;;;;;;7.10;100.00;101365.22;6248720;22;20020;-78
2024/02/17 01:52:47;;;;;;;0.00;0.00;;;;;;;6.97;100.00;101346.28;6281166;22;19988;-79
2024/02/17 01:55:33;;;;;;;0.00;0.00;;;;;;;7.15;100.00;101379.00;6251944;22;19990;-78
2024/02/17 02:01:37;;;;;;;;;;;;;;;;;;;;;
2024/02/17 02:04:20;;;;;;;0.00;0.00;;;;;;;6.86;100.00;101333.38;6268932;22;20083;-79
2024/02/17 02:06:45;;;;;;;0.00;0.00;;;;;;;7.08;100.00;101383.66;6252076;22;19988;-78
2024/02/17 02:09:21;;;;;;;;;;;;;;;;;;;;;
2024/02/17 02:11:46;;;;;;;0.00;0.00;;;;;;;7.00;100.00;101356.72;6258429;22;20046;-78
2024/02/17 02:14:13;;;;;;;0.00;0.00;;;;;;;7.13;100.00;101377.56;6253289;22;20007;-78
2024/02/17 02:17:17;;;;;;;;;;;;;;;;;;;;;
2024/02/17 02:19:47;;;;;;;0.00;0.00;;;;;;;7.10;100.00;101373.38;6274082;22;20068;-81
2024/02/17 02:22:15;;;;;;;0.00;0.00;;;;;;;7.27;100.00;101378.28;6230070;22;20014;-80
2024/02/17 02:24:44;;;;;;;0.00;0.00;;;;;;;7.09;100.00;101333.63;6254488;22;19983;-77
2024/02/17 02:27:09;;;;;;;0.00;0.00;;;;;;;7.32;100.00;101364.88;6254757;22;20000;-77
2024/02/17 02:29:35;;;;;;;0.10;0.10;;;;;;;7.39;100.00;101376.53;6252278;22;20010;-79
2024/02/17 02:32:03;;;;;;;0.00;0.00;;;;;;;7.30;100.00;101361.50;6226970;22;20478;-78
2024/02/17 02:34:28;;;;;;;0.10;0.10;;;;;;;7.50;100.00;101380.41;6204137;22;20003;-78
2024/02/17 02:36:56;;;;;;;0.00;0.00;;;;;;;7.48;100.00;101369.75;6251989;22;20771;-78
2024/02/17 02:39:24;;;;;;;0.00;0.00;;;;;;;7.45;100.00;101364.75;6228411;22;20341;-78
2024/02/17 02:41:49;;;;;;;0.00;0.00;;;;;;;7.51;100.00;101368.47;6252836;22;20038;-78
2024/02/17 02:44:15;;;;;;;0.10;0.10;;;;;;;7.64;100.00;101379.25;6230696;22;20012;-78
2024/02/17 02:46:41;;;;;;;0.00;0.00;;;;;;;7.50;100.00;101351.31;6230113;22;20000;-78
2024/02/17 02:49:07;;;;;;;0.00;0.00;;;;;;;7.72;100.00;101385.47;6227910;22;20082;-79
2024/02/17 02:51:35;;;;;;;0.00;0.00;;;;;;;7.62;100.00;101356.00;6228262;22;20004;-78
2024/02/17 02:54:21;;;;;;;0.00;0.00;;;;;;;7.64;100.00;101356.66;6226317;22;20026;-78
2024/02/17 02:56:48;;;;;;;0.00;0.00;;;;;;;7.88;100.00;101381.34;6282461;22;20008;-78
2024/02/17 02:59:15;;;;;;;0.00;0.00;;;;;;;7.80;100.00;101357.97;6252352;22;20007;-79
2024/02/17 03:01:41;;;;;;;0.00;0.00;;;;;;;7.85;100.00;101358.94;6229140;22;20008;-75
2024/02/17 03:04:12;;;;;;;0.10;0.10;;;;;;;8.08;100.00;101376.50;6251671;22;20003;-78
2024/02/17 03:06:37;;;;;;;0.00;0.00;;;;;;;8.07;100.00;101365.84;6251581;22;20004;-77
2024/02/17 03:09:03;;;;;;;0.00;0.00;;;;;;;8.18;100.00;101371.38;6252392;22;20000;-76
2024/02/17 03:11:29;;;;;;;0.00;0.00;;;;;;;8.15;100.00;101351.94;6204596;22;20057;-78
2024/02/17 03:14:01;;;;;;;0.00;0.00;;;;;;;8.01;100.00;101329.44;6203811;22;20007;-77
2024/02/17 03:16:29;;;;;;;0.00;0.00;;;;;;;8.35;100.00;101382.50;6203485;22;20023;-77
2024/02/17 03:18:55;;;;;;;0.00;0.00;;;;;;;8.19;100.00;101348.53;6253209;22;20003;-78
2024/02/17 03:21:33;;;;;;;;;;;;;;;;;;;;;
2024/02/17 03:24:35;;;;;;;0.00;0.00;;;;;;;8.24;100.00;101366.09;6259446;22;20037;-80
2024/02/17 03:30:40;;;;;;;;;;;;;;;;;;;;;
2024/02/17 03:33:27;;;;;;;0.00;0.00;;;;;;;8.17;100.00;101350.63;6281806;22;20034;-78
2024/02/17 03:36:06;;;;;;;0.00;0.00;;;;;;;8.40;100.00;101376.38;6282108;22;20015;-78
2024/02/17 03:38:33;;;;;;;0.00;0.00;;;;;;;8.34;100.00;101366.38;6206943;22;20007;-78
2024/02/17 03:41:02;;;;;;;0.00;0.00;;;;;;;8.48;100.00;101386.97;6256175;22;20423;-78
2024/02/17 03:43:50;;;;;;;0.00;0.00;;;;;;;8.40;100.00;101376.38;6228224;22;20086;-79
2024/02/17 03:46:16;;;;;;;0.00;0.00;;;;;;;8.49;100.00;101388.66;6233572;22;20427;-78
2024/02/17 03:48:47;;;;;;;0.00;0.00;;;;;;;8.38;100.00;101383.91;6225430;22;20019;-80
2024/02/17 03:51:20;;;;;;;0.00;0.00;;;;;;;8.35;100.00;101368.03;6254703;22;20030;-77
2024/02/17 03:53:48;;;;;;;0.00;0.00;;;;;;;8.54;100.00;101391.53;6279975;22;20009;-78
2024/02/17 03:56:15;;;;;;;0.00;0.00;;;;;;;8.59;100.00;101390.03;6252312;22;20376;-79
2024/02/17 03:58:41;;;;;;;0.00;0.00;;;;;;;8.67;100.00;101401.44;6200979;22;19995;-78
2024/02/17 04:01:06;;;;;;;0.00;0.00;;;;;;;8.60;100.00;101383.50;6230069;22;20039;-78
2024/02/17 04:03:31;;;;;;;0.00;0.00;;;;;;;8.70;100.00;101391.94;6278313;22;20031;-77
2024/02/17 04:05:57;;;;;;;0.00;0.00;;;;;;;8.72;100.00;101395.31;6250335;22;20007;-76
2024/02/17 04:08:22;;;;;;;0.00;0.00;;;;;;;8.77;100.00;101403.59;6278838;22;20008;-78
2024/02/17 04:10:48;;;;;;;0.00;0.00;;;;;;;8.89;100.00;101420.88;6222429;22;19999;-77
2024/02/17 04:13:13;;;;;;;0.00;0.00;;;;;;;8.94;100.00;101416.63;6227529;22;20012;-77
2024/02/17 04:15:38;;;;;;;0.00;0.00;;;;;;;9.01;100.00;101420.06;6229061;22;20031;-77
2024/02/17 04:18:08;;;;;;;0.00;0.00;;;;;;;9.07;100.00;101419.16;6204027;22;20438;-78
2024/02/17 04:20:37;;;;;;;0.00;0.00;;;;;;;9.13;100.00;101414.69;6255814;22;20055;-77
2024/02/17 04:23:03;;;;;;;0.00;0.00;;;;;;;9.08;100.00;101410.75;6253038;22;20326;-77
2024/02/17 04:25:28;;;;;;;0.08;0.08;;;;;;;9.04;100.00;101415.00;6230743;22;20010;-77
2024/02/17 04:27:54;;;;;;;0.00;0.00;;;;;;;9.09;100.00;101425.22;6254051;22;20014;-78
2024/02/17 04:30:19;;;;;;;0.00;0.00;;;;;;;9.05;100.00;101416.69;6231626;22;20077;-79
2024/02/17 04:32:52;;;;;;;0.00;0.00;;;;;;;9.03;100.00;101413.31;6253582;22;19998;-78
2024/02/17 04:35:20;;;;;;;0.00;0.00;;;;;;;9.15;100.00;101435.19;6229974;22;20008;-79
2024/02/17 04:37:46;;;;;;;0.00;0.00;;;;;;;9.18;100.00;101432.00;6232105;22;20007;-78
2024/02/17 04:40:12;;;;;;;0.00;0.00;;;;;;;9.23;100.00;101440.34;6201439;22;20010;-78
2024/02/17 04:42:38;;;;;;;0.00;0.00;;;;;;;9.17;100.00;101424.91;6230524;22;20004;-77
2024/02/17 04:45:04;;;;;;;0.00;0.00;;;;;;;9.32;100.00;101437.28;6201990;22;20019;-77
2024/02/17 04:47:31;;;;;;;0.00;0.00;;;;;;;9.37;100.00;101442.88;6259161;22;20034;-78
2024/02/17 04:49:57;;;;;;;0.00;0.00;;;;;;;9.30;100.00;101428.47;6229535;22;20701;-78
2024/02/17 04:52:25;;;;;;;0.00;0.00;;;;;;;9.35;100.00;101431.38;6254851;22;20003;-78
2024/02/17 04:55:02;;;;;;;0.00;0.00;;;;;;;9.52;100.00;101448.72;6254855;22;20145;-79
2024/02/17 04:57:28;;;;;;;0.00;0.00;;;;;;;9.22;100.00;101402.38;6254972;22;20000;-78
2024/02/17 04:59:53;;;;;;;0.00;0.00;;;;;;;9.41;100.00;101430.41;6280546;22;20010;-77
2024/02/17 05:02:21;;;;;;;0.00;0.00;;;;;;;9.41;100.00;101424.97;6255099;22;20012;-78
2024/02/17 05:04:47;;;;;;;0.00;0.00;;;;;;;9.44;100.00;101429.94;6206306;22;19995;-79
2024/02/17 05:07:13;;;;;;;0.00;0.00;;;;;;;9.47;100.00;101426.75;6228567;22;20014;-78
2024/02/17 05:09:39;;;;;;;0.00;0.00;;;;;;;9.57;100.00;101435.19;6256529;22;20079;-79
2024/02/17 05:12:14;;;;;;;;;;;;;;;;;;;;;
2024/02/17 05:14:43;;;;;;;0.00;0.00;;;;;;;9.34;100.00;101407.84;6280493;22;20114;-79
2024/02/17 05:17:13;;;;;;;0.00;0.00;;;;;;;9.37;100.00;101419.13;6231152;22;20090;-79
2024/02/17 05:19:38;;;;;;;0.00;0.00;;;;;;;9.40;100.00;101415.09;6253584;22;20469;-78
2024/02/17 05:22:11;;;;;;;0.00;0.00;;;;;;;9.60;100.00;101451.09;6255654;22;20086;-79
2024/02/17 05:24:37;;;;;;;0.00;0.00;;;;;;;9.61;100.00;101450.06;6225055;22;20008;-78
2024/02/17 05:27:03;;;;;;;0.00;0.00;;;;;;;9.51;100.00;101430.69;6228964;22;20445;-78
2024/02/17 05:29:28;;;;;;;0.00;0.00;;;;;;;9.58;100.00;101436.88;6253120;22;20016;-78
2024/02/17 05:31:53;;;;;;;0.00;0.00;;;;;;;9.71;100.00;101451.38;6206962;22;20012;-78
2024/02/17 05:34:19;;;;;;;0.00;0.00;;;;;;;9.67;100.00;101442.00;6257387;22;20007;-77
2024/02/17 05:36:45;;;;;;;0.00;0.00;;;;;;;9.64;100.00;101439.72;6254633;22;20008;-78
2024/02/17 05:39:11;;;;;;;0.00;0.00;;;;;;;9.61;100.00;101430.94;6282623;22;19995;-77
2024/02/17 05:41:36;;;;;;;0.00;0.00;;;;;;;9.71;100.00;101435.81;6275721;22;20007;-77
2024/02/17 05:44:02;;;;;;;0.00;0.00;;;;;;;9.81;100.00;101457.06;6254205;22;20003;-78
2024/02/17 05:46:28;;;;;;;0.10;0.10;;;;;;;9.85;100.00;101450.06;6252406;22;20343;-79
2024/02/17 05:48:53;;;;;;;0.10;0.10;;;;;;;9.94;100.00;101467.81;6230861;22;20022;-77
2024/02/17 05:51:19;;;;;;;0.00;0.00;;;;;;;9.84;100.00;101456.63;6229610;22;20311;-80
2024/02/17 05:53:44;;;;;;;0.00;0.00;;;;;;;9.91;100.00;101451.84;6254790;22;20369;-79
2024/02/17 05:56:10;;;;;;;0.08;0.08;;;;;;;10.05;100.00;101468.03;6256695;22;19988;-80
2024/02/17 05:58:41;;;;;;;0.00;0.00;;;;;;;9.87;100.00;101439.75;6201364;22;20102;-78
2024/02/17 06:01:07;;;;;;;0.00;0.00;;;;;;;9.96;100.00;101446.53;6251238;22;20053;-78
2024/02/17 06:03:33;;;;;;;0.00;0.00;;;;;;;10.09;100.00;101463.75;6199722;22;20008;-77
2024/02/17 06:05:58;;;;;;;0.00;0.00;;;;;;;10.08;100.00;101462.94;6277073;22;20030;-77
2024/02/17 06:08:24;;;;;;;0.00;0.00;;;;;;;10.09;100.00;101459.13;6281141;22;19999;-77
2024/02/17 06:10:49;;;;;;;0.00;0.00;;;;;;;10.07;100.00;101460.44;6198934;22;20012;-78
2024/02/17 06:13:17;;;;;;;0.00;0.00;;;;;;;10.13;100.00;101470.41;6254545;22;20014;-77
2024/02/17 06:15:43;;;;;;;0.00;0.00;;;;;;;10.17;100.00;101481.72;6279466;22;20047;-79
2024/02/17 06:21:10;;;;;;;0.10;0.10;;;;;;;10.26;100.00;101478.38;6278830;22;20691;-78
2024/02/17 06:23:37;;;;;;;0.00;0.00;;;;;;;10.14;100.00;101450.22;6231636;22;20427;-76
2024/02/17 06:26:02;;;;;;;0.00;0.00;;;;;;;10.27;100.00;101471.84;6227115;22;20010;-77
2024/02/17 06:28:28;;;;;;;0.00;0.00;;;;;;;10.32;100.00;101482.06;6254578;22;20003;-78
2024/02/17 06:30:53;;;;;;;0.00;0.00;;;;;;;10.39;100.00;101499.19;6253864;22;20082;-77
2024/02/17 06:33:19;;;;;;;0.00;0.00;;;;;;;10.41;100.00;101499.81;6203577;22;20006;-77
2024/02/17 06:35:44;;;;;;;0.00;0.00;;;;;;;10.35;100.00;101494.44;6228362;22;20027;-77
2024/02/17 06:38:10;;;;;;;0.00;0.00;;;;;;;10.27;100.00;101474.56;6226999;22;20031;-78
2024/02/17 06:40:35;;;;;;;0.00;0.00;;;;;;;10.38;100.00;101500.28;6229384;22;20007;-78
2024/02/17 06:43:01;;;;;;;0.00;0.00;;;;;;;10.40;100.00;101509.06;6226931;22;20007;-77
2024/02/17 06:45:27;;;;;;;0.00;0.00;;;;;;;10.37;100.00;101497.81;6255770;22;20482;-77
2024/02/17 06:47:54;;;;;;;0.00;0.00;;;;;;;10.40;100.00;101508.25;6228460;22;20004;-77
2024/02/17 06:50:20;;;;;;;0.00;0.00;;;;;;;10.50;100.00;101530.38;6254427;22;20016;-79
2024/02/17 06:52:45;;;;;;;0.00;0.00;;;;;;;10.53;100.00;101540.81;6255102;22;20037;-78
2024/02/17 06:55:16;;;;;;;0.00;0.00;;;;;;;10.47;100.00;101539.06;6202964;22;20085;-77
2024/02/17 06:57:44;;;;;;;0.00;0.00;;;;;;;10.40;100.00;101520.00;6256082;22;20003;-78
2024/02/17 07:00:10;;;;;;;0.00;0.00;;;;;;;10.56;100.00;101540.34;6252404;22;20117;-80
2024/02/17 07:02:43;;;;;;;0.00;0.00;;;;;;;10.47;100.00;101536.31;6253773;22;20081;-77
2024/02/17 07:05:09;;;;;;;0.00;0.00;;;;;;;10.48;100.00;101535.22;6228890;22;20035;-78
2024/02/17 07:07:34;;;;;;;0.00;0.00;;;;;;;10.47;100.00;101536.31;6203200;22;20014;-78
2024/02/17 07:10:03;;;;;;;0.00;0.00;;;;;;;10.40;100.00;101514.53;6282583;22;20046;-79
2024/02/17 07:12:31;;;;;;;0.00;0.00;;;;;;;10.43;100.00;101529.66;6251664;22;20015;-79
2024/02/17 07:14:57;;;;;;;0.00;0.00;;;;;;;10.35;100.00;101516.31;6252448;22;20394;-78
2024/02/17 07:17:23;;;;;;;0.00;0.00;;;;;;;10.42;100.00;101533.44;6252946;22;20023;-79
2024/02/17 07:19:51;;;;;;;0.00;0.00;;;;;;;10.25;100.00;101506.78;6224268;22;20037;-78
2024/02/17 07:22:19;;;;;;;0.00;0.00;;;;;;;10.22;100.00;101496.34;6227945;22;20019;-78
2024/02/17 07:24:45;;;;;;;0.00;0.00;;;;;;;10.38;100.00;101526.78;6278607;22;19996;-79
2024/02/17 07:27:18;;;;;;;0.00;0.00;;;;;;;10.54;100.00;101558.91;6229429;22;20008;-77
2024/02/17 07:29:43;;;;;;;0.00;0.00;;;;;;;10.25;100.00;101505.94;6260687;22;19995;-78
2024/02/17 07:32:09;;;;;;;0.00;0.00;;;;;;;10.58;100.00;101560.06;6266570;22;20093;-79
2024/02/17 07:34:49;;;;;;;0.00;0.00;;;;;;;10.54;100.00;101547.97;6262367;22;20296;-78
2024/02/17 07:37:15;;;;;;;0.10;0.10;;;;;;;10.68;100.00;101564.13;6260644;22;20034;-79
2024/02/17 07:39:52;;;;;;;0.00;0.00;;;;;;;10.31;100.00;101489.44;6258853;22;20008;-80
2024/02/17 07:42:28;;;;;;;;;;;;;;;;;;;;;
2024/02/17 07:44:56;;;;;;;0.00;0.00;;;;;;;10.68;100.00;101540.34;6292535;22;20007;-78
2024/02/17 07:47:23;;;;;;;0.00;0.00;;;;;;;10.78;100.00;101550.69;6233751;22;20014;-79
2024/02/17 07:49:48;;;;;;;0.00;0.00;;;;;;;10.64;100.00;101520.84;6257446;22;19996;-78
2024/02/17 07:52:41;;;;;;;0.00;0.00;;;;;;;10.78;100.00;101537.81;6257524;22;20011;-80
2024/02/17 07:55:19;;;;;;;0.00;0.00;;;;;;;10.81;100.00;101542.00;6256699;22;20061;-79
2024/02/17 07:57:47;;;;;;;0.00;0.00;;;;;;;11.12;100.00;101586.44;6259279;22;20506;-79
2024/02/17 08:01:12;;;;;;;;;;;;;;;;;;;;;
2024/02/17 08:03:36;;;;;;;0.00;0.00;;;;;;;11.08;100.00;101555.13;6279590;22;20003;-80
2024/02/17 08:06:21;;;;;;;0.00;0.00;;;;;;;11.03;100.00;101544.91;6231354;22;20018;-81
2024/02/17 08:08:58;;;;;;;0.00;0.00;;;;;;;11.19;100.00;101559.75;6229949;22;20898;-81
2024/02/17 08:11:35;;;;;;;0.00;0.00;;;;;;;11.44;100.00;101583.25;6258540;22;20004;-82
2024/02/17 08:14:15;;;;;;;;;;;;;;;;;;;;;
2024/02/17 08:16:44;;;;;;;0.00;0.00;;;;;;;11.53;100.00;101587.25;6228957;23;20079;-81
2024/02/17 08:19:10;;;;;;;0.00;0.00;;;;;;;11.61;100.00;101589.63;6224856;23;20043;-79
2024/02/17 08:21:37;;;;;;;0.00;0.00;;;;;;;11.85;100.00;101616.91;6252653;23;20327;-77
2024/02/17 08:24:13;;;;;;;;;;;;;;;;;;;;;
2024/02/17 08:26:57;;;;;;;0.00;0.00;;;;;;;11.86;100.00;101611.19;6252967;23;20024;-79
2024/02/17 08:29:51;;;;;;;0.00;0.00;;;;;;;11.76;100.00;101597.28;6227963;23;20012;-78
2024/02/17 08:32:16;;;;;;;0.10;0.10;;;;;;;11.88;100.00;101617.28;6233402;23;20091;-76
2024/02/17 08:34:51;;;;;;;0.00;0.00;;;;;;;11.67;100.00;101593.28;6262077;23;20027;-78
2024/02/17 08:37:52;;;;;;;;;;;;;;;;;;;;;
2024/02/17 08:40:18;;;;;;;0.00;0.00;;;;;;;11.78;100.00;101622.53;6259191;23;20024;-72
2024/02/17 08:42:46;;;;;;;0.00;0.00;;;;;;;11.79;100.00;101631.59;6256319;23;20011;-75
2024/02/17 08:45:12;;;;;;;0.00;0.00;;;;;;;11.76;100.00;101626.63;6228201;23;20035;-74
2024/02/17 08:47:37;;;;;;;0.00;0.00;;;;;;;11.80;100.00;101636.00;6204567;23;20012;-75
2024/02/17 08:50:03;;;;;;;0.00;0.00;;;;;;;11.72;100.00;101639.13;6231320;23;20091;-76
2024/02/17 08:52:29;;;;;;;0.00;0.00;;;;;;;11.55;100.00;101625.38;6229046;23;20050;-76
2024/02/17 08:54:54;;;;;;;0.10;0.10;;;;;;;11.57;100.00;101628.72;6178603;23;20450;-76
2024/02/17 08:57:20;;;;;;;0.00;0.00;;;;;;;11.68;100.00;101634.16;6201635;23;20419;-77
2024/02/17 08:59:45;;;;;;;0.00;0.00;;;;;;;11.72;100.00;101628.16;6252276;23;20411;-75
2024/02/17 09:02:16;;;;;;;0.00;0.00;;;;;;;11.73;100.00;101611.47;6225013;23;20012;-76
2024/02/17 09:04:45;;;;;;;0.00;0.00;;;;;;;11.90;100.00;101618.91;6202716;23;20015;-76
2024/02/17 09:07:11;;;;;;;0.10;0.10;;;;;;;11.99;100.00;101621.03;6200255;23;20004;-76
2024/02/17 09:09:39;;;;;;;0.00;0.00;;;;;;;12.08;100.00;101609.69;6226374;23;19996;-77
2024/02/17 09:12:05;;;;;;;0.00;0.00;;;;;;;12.14;100.00;101616.91;6224947;23;20374;-76
2024/02/17 09:14:35;;;;;;;0.00;0.00;;;;;;;12.05;100.00;101606.34;6221318;22;20008;-74
2024/02/17 09:17:03;;;;;;;0.00;0.00;;;;;;;12.03;100.00;101624.13;6194495;23;20462;-76
2024/02/17 09:19:30;;;;;;;0.00;0.00;;;;;;;11.92;100.00;101612.13;6193328;23;20070;-76
2024/02/17 09:21:55;;;;;;;0.10;0.10;;;;;;;11.89;100.00;101618.09;6146934;23;20095;-76
2024/02/17 09:24:25;;;;;;;0.00;0.00;;;;;;;11.68;100.00;101606.75;6193750;23;20044;-75
2024/02/17 09:27:09;;;;;;;0.00;0.00;;;;;;;11.62;100.00;101607.72;6194738;23;20169;-76
2024/02/17 09:32:28;;;;;;;0.00;0.00;;;;;;;11.64;100.00;101604.75;6199841;23;20342;-76
2024/02/17 09:35:13;;;;;;;0.00;0.00;;;;;;;12.03;100.00;101673.47;6220875;23;20004;-76
2024/02/17 09:37:44;;;;;;;0.00;0.00;;;;;;;11.80;100.00;101641.50;6221179;23;20158;-77
2024/02/17 09:40:22;;;;;;;0.10;0.10;;;;;;;11.85;100.00;101682.69;6194530;23;20028;-76
2024/02/17 09:42:50;;;;;;;0.00;0.00;;;;;;;11.54;100.00;101635.50;6221389;23;20375;-77
2024/02/17 09:45:16;;;;;;;0.00;0.00;;;;;;;11.56;100.00;101658.00;6220401;23;20107;-76
2024/02/17 09:47:45;;;;;;;0.00;0.00;;;;;;;11.63;100.00;101668.81;6195349;23;20015;-77
2024/02/17 09:50:11;;;;;;;0.00;0.00;;;;;;;11.68;100.00;101667.03;6193634;23;20104;-76
2024/02/17 09:52:37;;;;;;;0.00;0.00;;;;;;;11.82;100.00;101677.69;6170456;23;20043;-76
2024/02/17 09:55:04;;;;;;;0.00;0.00;;;;;;;12.09;100.00;101668.91;6167658;23;20005;-77
2024/02/17 09:57:29;;;;;;;0.10;0.10;;;;;;;12.33;100.00;101670.44;6196559;23;20548;-77
2024/02/17 09:59:55;;;;;;;0.00;0.00;;;;;;;12.39;100.00;101665.88;6193325;23;20010;-75
2024/02/17 10:02:21;;;;;;;0.00;0.00;;;;;;;12.39;100.00;101672.19;6168530;23;20013;-76
2024/02/17 10:04:57;;;;;;;0.00;0.00;;;;;;;12.49;100.00;101681.69;6169851;23;20035;-75
2024/02/17 10:07:23;;;;;;;0.00;0.00;;;;;;;12.69;100.00;101690.28;6168745;23;20659;-76
2024/02/17 10:09:53;;;;;;;0.00;0.00;;;;;;;12.81;100.00;101670.16;6197664;23;19993;-76
2024/02/17 10:12:22;;;;;;;0.00;0.00;;;;;;;12.94;100.00;101678.03;6221002;23;19992;-76
2024/02/17 10:14:57;;;;;;;0.00;0.00;;;;;;;13.04;100.00;101702.91;6228816;22;20020;-75
2024/02/17 10:17:25;;;;;;;0.00;0.00;;;;;;;12.88;100.00;101703.75;6223197;23;20008;-77
2024/02/17 10:19:55;;;;;;;0.00;0.00;;;;;;;12.64;100.00;101690.19;6222394;23;20004;-76
2024/02/17 10:22:21;;;;;;;0.00;0.00;;;;;;;12.22;100.00;101666.72;6222087;23;20004;-77
2024/02/17 10:25:07;;;;;;;0.00;0.00;;;;;;;12.16;100.00;101705.25;6223118;23;20027;-77
2024/02/17 10:27:38;;;;;;;0.00;0.00;;;;;;;11.93;100.00;101684.19;6223775;23;20008;-77
2024/02/17 10:30:27;;;;;;;0.00;0.00;;;;;;;12.16;100.00;101716.22;6250153;22;20006;-76
2024/02/17 10:32:52;;;;;;;0.00;0.00;;;;;;;12.09;100.00;101688.09;6219551;22;20050;-76
2024/02/17 10:35:31;;;;;;;0.00;0.00;;;;;;;12.17;100.00;101706.91;6198934;23;20058;-76
2024/02/17 10:37:57;;;;;;;0.00;0.00;;;;;;;12.11;100.00;101718.88;6248199;23;20011;-75
2024/02/17 10:40:24;;;;;;;0.00;0.00;;;;;;;12.25;100.00;101725.72;6196083;23;20702;-78
2024/02/17 10:42:51;;;;;;;0.00;0.00;;;;;;;12.13;100.00;101716.69;6196780;23;20027;-76
2024/02/17 10:45:16;;;;;;;0.00;0.00;;;;;;;12.27;100.00;101737.28;6200400;23;20012;-77
2024/02/17 10:47:45;;;;;;;0.00;0.00;;;;;;;12.31;100.00;101730.22;6250448;23;21061;-76
2024/02/17 10:50:13;;;;;;;0.00;0.00;;;;;;;12.43;100.00;101721.09;6249649;23;20003;-77
2024/02/17 10:52:51;;;;;;;0.00;0.00;;;;;;;12.47;100.00;101712.13;6199067;23;20388;-76
2024/02/17 10:55:31;;;;;;;0.00;0.00;;;;;;;12.52;100.00;101701.22;6221196;23;20008;-77
2024/02/17 10:57:56;;;;;;;0.00;0.00;;;;;;;12.59;100.00;101703.81;6249402;23;20078;-76
2024/02/17 11:00:46;;;;;;;0.00;0.00;;;;;;;12.51;100.00;101701.47;6220484;23;20004;-78
2024/02/17 11:03:14;;;;;;;0.00;0.00;;;;;;;12.62;100.00;101708.00;6219554;23;20009;-76
2024/02/17 11:05:48;;;;;;;0.00;0.00;;;;;;;12.66;100.00;101726.44;6248280;23;20007;-76
2024/02/17 11:08:15;;;;;;;0.00;0.00;;;;;;;12.54;100.00;101700.97;6222403;23;20011;-77
2024/02/17 11:10:43;;;;;;;0.00;0.00;;;;;;;12.62;100.00;101710.75;6221192;23;20004;-75
2024/02/17 11:13:42;;;;;;;0.00;0.00;;;;;;;12.58;100.00;101721.38;6194849;23;20810;-77
2024/02/17 11:16:08;;;;;;;0.00;0.00;;;;;;;12.45;100.00;101699.72;6195529;23;20020;-77
2024/02/17 11:18:44;;;;;;;0.00;0.00;;;;;;;12.46;100.00;101690.44;6189950;23;20013;-77
2024/02/17 11:21:10;;;;;;;0.00;0.00;;;;;;;12.55;100.00;101700.72;6190636;23;20008;-75
2024/02/17 11:23:42;;;;;;;0.00;0.00;;;;;;;12.46;100.00;101699.47;6169260;23;20013;-74
2024/02/17 11:26:22;;;;;;;0.00;0.00;;;;;;;12.43;100.00;101685.44;6165876;23;20012;-76
2024/02/17 11:28:50;;;;;;;0.00;0.00;;;;;;;12.48;100.00;101707.47;6170236;23;20001;-78
2024/02/17 11:31:19;;;;;;;0.00;0.00;;;;;;;12.31;100.00;101708.28;6190709;23;19993;-77
2024/02/17 11:33:48;;;;;;;0.00;0.00;;;;;;;12.26;100.00;101715.56;6191137;23;20070;-77
2024/02/17 11:36:15;;;;;;;0.00;0.00;;;;;;;11.99;100.00;101703.28;6165501;23;20020;-76
2024/02/17 11:38:44;;;;;;;0.00;0.00;;;;;;;11.93;100.00;101744.50;6166837;23;20012;-76
2024/02/17 11:41:13;;;;;;;0.00;0.00;;;;;;;11.74;100.00;101716.44;6192494;23;20004;-77
2024/02/17 11:43:38;;;;;;;0.00;0.00;;;;;;;11.76;100.00;101730.75;6193964;23;20023;-77
2024/02/17 11:46:11;;;;;;;0.00;0.00;;;;;;;11.66;100.00;101706.69;6193715;23;20005;-76
2024/02/17 11:48:38;;;;;;;0.00;0.00;;;;;;;11.75;100.00;101715.38;6192480;23;20017;-77
2024/02/17 11:51:13;;;;;;;0.00;0.00;;;;;;;11.64;100.00;101692.41;6219447;23;20000;-77
2024/02/17 11:53:44;;;;;;;0.00;0.00;;;;;;;11.70;100.00;101703.22;6189694;23;19992;-77
2024/02/17 11:56:13;;;;;;;0.00;0.00;;;;;;;11.70;100.00;101703.22;6169951;23;20469;-77
2024/02/17 11:58:43;;;;;;;0.00;0.00;;;;;;;11.68;100.00;101710.88;6190928;23;20062;-76
2024/02/17 12:01:13;;;;;;;0.00;0.00;;;;;;;11.65;100.00;101696.81;6188044;23;20099;-77
2024/02/17 12:03:41;;;;;;;0.00;0.00;;;;;;;11.67;100.00;101695.50;6192258;23;20474;-76
2024/02/17 12:06:07;;;;;;;0.00;0.00;;;;;;;11.79;100.00;101700.94;6164492;23;20454;-77
2024/02/17 12:08:35;;;;;;;0.00;0.00;;;;;;;11.80;100.00;101683.44;6190581;23;19996;-77
2024/02/17 12:11:01;;;;;;;0.00;0.00;;;;;;;11.80;100.00;101691.66;6165339;23;20012;-76